sensor_id;sensor_type;location;lat;lon;timestamp;P1;durP1;ratioP1;P2;durP2;ratioP2
30243;SDS011;64022;53.652;9.792;2023-03-05T00:00:50;12.65;;;7.50;;
30243;SDS011;64022;53.652;9.792;2023-03-05T00:03:16;14.17;;;7.43;;
30243;SDS011;64022;53.652;9.792;2023-03-05T00:05:41;14.23;;;7.73;;
30243;SDS011;64022;53.652;9.792;2023-03-05T00:08:07;10.77;;;6.70;;
30243;SDS011;64022;53.652;9.792;2023-03-05T00:10:32;11.37;;;7.07;;
30243;SDS011;64022;53.652;9.792;2023-03-05T00:12:58;10.30;;;6.77;;
30243;SDS011;64022;53.652;9.792;2023-03-05T00:15:24;12.40;;;7.73;;
30243;SDS011;64022;53.652;9.792;2023-03-05T00:17:49;12.87;;;6.97;;
30243;SDS011;64022;53.652;9.792;2023-03-05T00:20:14;11.03;;;6.97;;
30243;SDS011;64022;53.652;9.792;2023-03-05T00:22:40;12.00;;;7.27;;
30243;SDS011;64022;53.652;9.792;2023-03-05T00:25:06;11.87;;;6.70;;
30243;SDS011;64022;53.652;9.792;2023-03-05T00:27:33;10.45;;;6.75;;
30243;SDS011;64022;53.652;9.792;2023-03-05T00:29:58;10.83;;;7.20;;
30243;SDS011;64022;53.652;9.792;2023-03-05T00:32:24;11.47;;;7.13;;
30243;SDS011;64022;53.652;9.792;2023-03-05T00:34:49;12.33;;;7.60;;
30243;SDS011;64022;53.652;9.792;2023-03-05T00:37:15;11.80;;;7.03;;
30243;SDS011;64022;53.652;9.792;2023-03-05T00:39:41;12.13;;;7.37;;
30243;SDS011;64022;53.652;9.792;2023-03-05T00:42:06;11.23;;;7.10;;
30243;SDS011;64022;53.652;9.792;2023-03-05T00:44:32;11.07;;;7.17;;
30243;SDS011;64022;53.652;9.792;2023-03-05T00:46:58;10.33;;;7.03;;
30243;SDS011;64022;53.652;9.792;2023-03-05T00:49:23;12.00;;;6.73;;
30243;SDS011;64022;53.652;9.792;2023-03-05T00:51:49;10.73;;;7.23;;
30243;SDS011;64022;53.652;9.792;2023-03-05T00:54:15;13.17;;;7.40;;
30243;SDS011;64022;53.652;9.792;2023-03-05T00:56:40;10.17;;;7.00;;
30243;SDS011;64022;53.652;9.792;2023-03-05T00:59:06;10.77;;;6.90;;
30243;SDS011;64022;53.652;9.792;2023-03-05T01:01:32;11.93;;;6.93;;
30243;SDS011;64022;53.652;9.792;2023-03-05T01:03:57;10.00;;;6.43;;
30243;SDS011;64022;53.652;9.792;2023-03-05T01:06:25;12.32;;;7.03;;
30243;SDS011;64022;53.652;9.792;2023-03-05T01:08:51;11.43;;;7.17;;
30243;SDS011;64022;53.652;9.792;2023-03-05T01:11:16;13.10;;;7.97;;
30243;SDS011;64022;53.652;9.792;2023-03-05T01:13:42;10.63;;;6.77;;
30243;SDS011;64022;53.652;9.792;2023-03-05T01:16:08;11.70;;;6.97;;
30243;SDS011;64022;53.652;9.792;2023-03-05T01:18:33;10.67;;;6.77;;
30243;SDS011;64022;53.652;9.792;2023-03-05T01:21:00;11.20;;;6.75;;
30243;SDS011;64022;53.652;9.792;2023-03-05T01:23:27;9.15;;;5.72;;
30243;SDS011;64022;53.652;9.792;2023-03-05T01:25:56;12.47;;;7.00;;
30243;SDS011;64022;53.652;9.792;2023-03-05T01:28:23;11.35;;;7.07;;
30243;SDS011;64022;53.652;9.792;2023-03-05T01:30:49;10.05;;;6.45;;
30243;SDS011;64022;53.652;9.792;2023-03-05T01:33:15;11.10;;;6.83;;
30243;SDS011;64022;53.652;9.792;2023-03-05T01:35:40;10.50;;;6.47;;
30243;SDS011;64022;53.652;9.792;2023-03-05T01:38:06;13.03;;;6.90;;
30243;SDS011;64022;53.652;9.792;2023-03-05T01:40:31;11.37;;;6.40;;
30243;SDS011;64022;53.652;9.792;2023-03-05T01:45:35;11.07;;;6.65;;
30243;SDS011;64022;53.652;9.792;2023-03-05T01:48:01;10.00;;;6.03;;
30243;SDS011;64022;53.652;9.792;2023-03-05T01:50:26;10.87;;;6.20;;
30243;SDS011;64022;53.652;9.792;2023-03-05T01:52:54;10.13;;;6.37;;
30243;SDS011;64022;53.652;9.792;2023-03-05T01:55:27;13.63;;;6.68;;
30243;SDS011;64022;53.652;9.792;2023-03-05T01:57:56;9.73;;;6.60;;
30243;SDS011;64022;53.652;9.792;2023-03-05T02:00:27;11.18;;;6.03;;
30243;SDS011;64022;53.652;9.792;2023-03-05T02:02:56;10.00;;;6.20;;
30243;SDS011;64022;53.652;9.792;2023-03-05T02:05:29;11.85;;;6.88;;
30243;SDS011;64022;53.652;9.792;2023-03-05T02:07:57;8.30;;;6.05;;
30243;SDS011;64022;53.652;9.792;2023-03-05T02:10:34;10.70;;;6.25;;
30243;SDS011;64022;53.652;9.792;2023-03-05T02:13:03;8.68;;;5.60;;
30243;SDS011;64022;53.652;9.792;2023-03-05T02:15:31;9.52;;;6.00;;
30243;SDS011;64022;53.652;9.792;2023-03-05T02:17:58;10.68;;;6.63;;
30243;SDS011;64022;53.652;9.792;2023-03-05T02:20:26;9.85;;;6.07;;
30243;SDS011;64022;53.652;9.792;2023-03-05T02:22:53;9.85;;;6.22;;
30243;SDS011;64022;53.652;9.792;2023-03-05T02:25:20;11.03;;;6.17;;
30243;SDS011;64022;53.652;9.792;2023-03-05T02:27:54;8.35;;;5.75;;
30243;SDS011;64022;53.652;9.792;2023-03-05T02:30:26;9.48;;;5.97;;
30243;SDS011;64022;53.652;9.792;2023-03-05T02:32:52;9.60;;;6.60;;
30243;SDS011;64022;53.652;9.792;2023-03-05T02:35:17;9.20;;;6.17;;
30243;SDS011;64022;53.652;9.792;2023-03-05T02:37:43;10.33;;;6.27;;
30243;SDS011;64022;53.652;9.792;2023-03-05T02:40:09;9.03;;;6.33;;
30243;SDS011;64022;53.652;9.792;2023-03-05T02:42:36;8.77;;;5.50;;
30243;SDS011;64022;53.652;9.792;2023-03-05T02:45:02;8.67;;;5.60;;
30243;SDS011;64022;53.652;9.792;2023-03-05T02:47:28;10.73;;;6.50;;
30243;SDS011;64022;53.652;9.792;2023-03-05T02:49:53;9.03;;;5.70;;
30243;SDS011;64022;53.652;9.792;2023-03-05T02:52:20;8.40;;;5.40;;
30243;SDS011;64022;53.652;9.792;2023-03-05T02:57:13;8.02;;;5.40;;
30243;SDS011;64022;53.652;9.792;2023-03-05T02:59:38;9.87;;;6.17;;
30243;SDS011;64022;53.652;9.792;2023-03-05T03:02:04;10.87;;;6.13;;
30243;SDS011;64022;53.652;9.792;2023-03-05T03:04:29;8.33;;;5.67;;
30243;SDS011;64022;53.652;9.792;2023-03-05T03:06:55;9.10;;;6.23;;
30243;SDS011;64022;53.652;9.792;2023-03-05T03:09:20;8.93;;;6.03;;
30243;SDS011;64022;53.652;9.792;2023-03-05T03:11:46;7.80;;;4.97;;
30243;SDS011;64022;53.652;9.792;2023-03-05T03:14:11;8.97;;;5.57;;
30243;SDS011;64022;53.652;9.792;2023-03-05T03:16:37;11.10;;;6.07;;
30243;SDS011;64022;53.652;9.792;2023-03-05T03:19:02;9.67;;;5.80;;
30243;SDS011;64022;53.652;9.792;2023-03-05T03:21:28;8.67;;;5.73;;
30243;SDS011;64022;53.652;9.792;2023-03-05T03:23:53;8.47;;;5.47;;
30243;SDS011;64022;53.652;9.792;2023-03-05T03:26:19;8.93;;;5.97;;
30243;SDS011;64022;53.652;9.792;2023-03-05T03:28:44;7.13;;;5.10;;
30243;SDS011;64022;53.652;9.792;2023-03-05T03:31:10;10.37;;;5.50;;
30243;SDS011;64022;53.652;9.792;2023-03-05T03:33:35;8.83;;;5.43;;
30243;SDS011;64022;53.652;9.792;2023-03-05T03:36:02;6.53;;;4.83;;
30243;SDS011;64022;53.652;9.792;2023-03-05T03:38:28;7.68;;;5.22;;
30243;SDS011;64022;53.652;9.792;2023-03-05T03:40:54;7.23;;;4.50;;
30243;SDS011;64022;53.652;9.792;2023-03-05T03:43:20;7.93;;;5.17;;
30243;SDS011;64022;53.652;9.792;2023-03-05T03:45:46;9.07;;;5.13;;
30243;SDS011;64022;53.652;9.792;2023-03-05T03:48:11;7.63;;;5.13;;
30243;SDS011;64022;53.652;9.792;2023-03-05T03:50:38;7.43;;;5.33;;
30243;SDS011;64022;53.652;9.792;2023-03-05T03:53:05;8.27;;;5.22;;
30243;SDS011;64022;53.652;9.792;2023-03-05T03:55:31;6.93;;;4.50;;
30243;SDS011;64022;53.652;9.792;2023-03-05T03:57:56;8.97;;;5.60;;
30243;SDS011;64022;53.652;9.792;2023-03-05T04:00:22;8.70;;;5.70;;
30243;SDS011;64022;53.652;9.792;2023-03-05T04:02:47;6.87;;;4.80;;
30243;SDS011;64022;53.652;9.792;2023-03-05T04:05:13;7.20;;;5.10;;
30243;SDS011;64022;53.652;9.792;2023-03-05T04:07:39;8.23;;;4.93;;
30243;SDS011;64022;53.652;9.792;2023-03-05T04:10:04;6.40;;;4.90;;
30243;SDS011;64022;53.652;9.792;2023-03-05T04:12:30;8.60;;;5.32;;
30243;SDS011;64022;53.652;9.792;2023-03-05T04:14:56;9.13;;;5.20;;
30243;SDS011;64022;53.652;9.792;2023-03-05T04:17:21;6.60;;;4.90;;
30243;SDS011;64022;53.652;9.792;2023-03-05T04:19:47;7.87;;;5.13;;
30243;SDS011;64022;53.652;9.792;2023-03-05T04:22:13;8.20;;;5.20;;
30243;SDS011;64022;53.652;9.792;2023-03-05T04:24:40;7.88;;;4.82;;
30243;SDS011;64022;53.652;9.792;2023-03-05T04:27:06;7.75;;;5.18;;
30243;SDS011;64022;53.652;9.792;2023-03-05T04:29:33;6.47;;;4.68;;
30243;SDS011;64022;53.652;9.792;2023-03-05T04:31:58;9.57;;;4.90;;
30243;SDS011;64022;53.652;9.792;2023-03-05T04:34:24;6.70;;;4.50;;
30243;SDS011;64022;53.652;9.792;2023-03-05T04:36:49;8.03;;;4.63;;
30243;SDS011;64022;53.652;9.792;2023-03-05T04:39:15;8.17;;;4.87;;
30243;SDS011;64022;53.652;9.792;2023-03-05T04:41:41;8.03;;;4.77;;
30243;SDS011;64022;53.652;9.792;2023-03-05T04:44:07;6.97;;;4.37;;
30243;SDS011;64022;53.652;9.792;2023-03-05T04:46:32;6.80;;;4.97;;
30243;SDS011;64022;53.652;9.792;2023-03-05T04:48:58;7.60;;;4.67;;
30243;SDS011;64022;53.652;9.792;2023-03-05T04:51:23;6.47;;;4.20;;
30243;SDS011;64022;53.652;9.792;2023-03-05T04:53:49;7.27;;;4.93;;
30243;SDS011;64022;53.652;9.792;2023-03-05T04:56:14;6.57;;;4.40;;
30243;SDS011;64022;53.652;9.792;2023-03-05T04:58:40;7.73;;;4.90;;
30243;SDS011;64022;53.652;9.792;2023-03-05T05:01:06;7.77;;;4.90;;
30243;SDS011;64022;53.652;9.792;2023-03-05T05:03:32;7.50;;;4.73;;
30243;SDS011;64022;53.652;9.792;2023-03-05T05:05:58;8.75;;;5.03;;
30243;SDS011;64022;53.652;9.792;2023-03-05T05:10:57;6.32;;;4.03;;
30243;SDS011;64022;53.652;9.792;2023-03-05T05:13:28;7.90;;;4.93;;
30243;SDS011;64022;53.652;9.792;2023-03-05T05:15:55;8.45;;;5.22;;
30243;SDS011;64022;53.652;9.792;2023-03-05T05:18:21;8.18;;;4.65;;
30243;SDS011;64022;53.652;9.792;2023-03-05T05:20:47;6.07;;;4.63;;
30243;SDS011;64022;53.652;9.792;2023-03-05T05:23:13;7.33;;;4.57;;
30243;SDS011;64022;53.652;9.792;2023-03-05T05:25:39;7.53;;;4.85;;
30243;SDS011;64022;53.652;9.792;2023-03-05T05:28:05;7.10;;;4.03;;
30243;SDS011;64022;53.652;9.792;2023-03-05T05:30:30;7.60;;;4.53;;
30243;SDS011;64022;53.652;9.792;2023-03-05T05:32:56;6.30;;;4.20;;
30243;SDS011;64022;53.652;9.792;2023-03-05T05:35:22;7.17;;;4.20;;
30243;SDS011;64022;53.652;9.792;2023-03-05T05:37:47;5.73;;;4.10;;
30243;SDS011;64022;53.652;9.792;2023-03-05T05:40:13;6.57;;;4.43;;
30243;SDS011;64022;53.652;9.792;2023-03-05T05:42:39;6.77;;;4.63;;
30243;SDS011;64022;53.652;9.792;2023-03-05T05:45:04;6.07;;;4.13;;
30243;SDS011;64022;53.652;9.792;2023-03-05T05:47:30;6.40;;;4.22;;
30243;SDS011;64022;53.652;9.792;2023-03-05T05:49:56;6.93;;;4.30;;
30243;SDS011;64022;53.652;9.792;2023-03-05T05:52:21;7.00;;;4.30;;
30243;SDS011;64022;53.652;9.792;2023-03-05T05:54:47;7.37;;;4.27;;
30243;SDS011;64022;53.652;9.792;2023-03-05T05:57:13;6.72;;;4.38;;
30243;SDS011;64022;53.652;9.792;2023-03-05T05:59:39;4.30;;;3.27;;
30243;SDS011;64022;53.652;9.792;2023-03-05T06:02:05;7.07;;;4.17;;
30243;SDS011;64022;53.652;9.792;2023-03-05T06:04:31;6.85;;;3.75;;
30243;SDS011;64022;53.652;9.792;2023-03-05T06:06:58;6.30;;;4.63;;
30243;SDS011;64022;53.652;9.792;2023-03-05T06:09:24;7.37;;;4.43;;
30243;SDS011;64022;53.652;9.792;2023-03-05T06:11:50;5.90;;;3.65;;
30243;SDS011;64022;53.652;9.792;2023-03-05T06:14:16;5.17;;;3.53;;
30243;SDS011;64022;53.652;9.792;2023-03-05T06:16:41;9.03;;;3.73;;
30243;SDS011;64022;53.652;9.792;2023-03-05T06:19:07;7.30;;;4.17;;
30243;SDS011;64022;53.652;9.792;2023-03-05T06:21:37;5.72;;;3.65;;
30243;SDS011;64022;53.652;9.792;2023-03-05T06:24:03;8.07;;;4.30;;
30243;SDS011;64022;53.652;9.792;2023-03-05T06:26:29;5.33;;;3.93;;
30243;SDS011;64022;53.652;9.792;2023-03-05T06:28:54;6.63;;;3.97;;
30243;SDS011;64022;53.652;9.792;2023-03-05T06:31:21;5.83;;;3.57;;
30243;SDS011;64022;53.652;9.792;2023-03-05T06:33:50;5.05;;;3.70;;
30243;SDS011;64022;53.652;9.792;2023-03-05T06:36:17;5.13;;;3.45;;
30243;SDS011;64022;53.652;9.792;2023-03-05T06:38:44;5.47;;;3.58;;
30243;SDS011;64022;53.652;9.792;2023-03-05T06:41:11;6.25;;;3.85;;
30243;SDS011;64022;53.652;9.792;2023-03-05T06:43:40;6.82;;;4.15;;
30243;SDS011;64022;53.652;9.792;2023-03-05T06:46:28;6.15;;;4.05;;
30243;SDS011;64022;53.652;9.792;2023-03-05T06:48:54;5.57;;;3.67;;
30243;SDS011;64022;53.652;9.792;2023-03-05T06:51:23;5.88;;;3.55;;
30243;SDS011;64022;53.652;9.792;2023-03-05T06:53:50;5.57;;;3.70;;
30243;SDS011;64022;53.652;9.792;2023-03-05T06:56:17;5.65;;;3.38;;
30243;SDS011;64022;53.652;9.792;2023-03-05T06:58:44;10.48;;;4.25;;
30243;SDS011;64022;53.652;9.792;2023-03-05T07:01:11;4.88;;;3.33;;
30243;SDS011;64022;53.652;9.792;2023-03-05T07:03:37;8.13;;;3.70;;
30243;SDS011;64022;53.652;9.792;2023-03-05T07:06:04;6.23;;;3.90;;
30243;SDS011;64022;53.652;9.792;2023-03-05T07:08:30;3.90;;;2.75;;
30243;SDS011;64022;53.652;9.792;2023-03-05T07:10:56;4.82;;;3.08;;
30243;SDS011;64022;53.652;9.792;2023-03-05T07:13:24;3.83;;;2.70;;
30243;SDS011;64022;53.652;9.792;2023-03-05T07:15:50;4.18;;;3.13;;
30243;SDS011;64022;53.652;9.792;2023-03-05T07:18:15;8.80;;;3.53;;
30243;SDS011;64022;53.652;9.792;2023-03-05T07:20:41;6.80;;;2.93;;
30243;SDS011;64022;53.652;9.792;2023-03-05T07:23:06;5.17;;;3.13;;
30243;SDS011;64022;53.652;9.792;2023-03-05T07:25:34;7.63;;;3.17;;
30243;SDS011;64022;53.652;9.792;2023-03-05T07:28:00;16.35;;;5.15;;
30243;SDS011;64022;53.652;9.792;2023-03-05T07:30:26;23.88;;;7.78;;
30243;SDS011;64022;53.652;9.792;2023-03-05T07:32:52;32.70;;;10.70;;
30243;SDS011;64022;53.652;9.792;2023-03-05T07:35:17;28.40;;;9.70;;
30243;SDS011;64022;53.652;9.792;2023-03-05T07:37:43;31.23;;;9.17;;
30243;SDS011;64022;53.652;9.792;2023-03-05T07:40:09;45.43;;;9.17;;
30243;SDS011;64022;53.652;9.792;2023-03-05T07:42:35;31.83;;;9.63;;
30243;SDS011;64022;53.652;9.792;2023-03-05T07:45:00;30.50;;;8.73;;
30243;SDS011;64022;53.652;9.792;2023-03-05T07:47:26;24.90;;;8.57;;
30243;SDS011;64022;53.652;9.792;2023-03-05T07:49:51;29.70;;;9.23;;
30243;SDS011;64022;53.652;9.792;2023-03-05T07:52:17;25.87;;;8.57;;
30243;SDS011;64022;53.652;9.792;2023-03-05T07:54:43;26.20;;;9.53;;
30243;SDS011;64022;53.652;9.792;2023-03-05T07:57:09;26.87;;;8.40;;
30243;SDS011;64022;53.652;9.792;2023-03-05T07:59:36;23.92;;;8.25;;
30243;SDS011;64022;53.652;9.792;2023-03-05T08:02:02;19.83;;;8.03;;
30243;SDS011;64022;53.652;9.792;2023-03-05T08:04:27;16.73;;;7.73;;
30243;SDS011;64022;53.652;9.792;2023-03-05T08:06:55;22.17;;;8.45;;
30243;SDS011;64022;53.652;9.792;2023-03-05T08:09:24;24.08;;;7.80;;
30243;SDS011;64022;53.652;9.792;2023-03-05T08:11:49;18.27;;;7.40;;
30243;SDS011;64022;53.652;9.792;2023-03-05T08:14:15;19.43;;;6.87;;
30243;SDS011;64022;53.652;9.792;2023-03-05T08:16:41;15.60;;;7.07;;
30243;SDS011;64022;53.652;9.792;2023-03-05T08:19:06;15.77;;;6.07;;
30243;SDS011;64022;53.652;9.792;2023-03-05T08:21:33;15.67;;;6.80;;
30243;SDS011;64022;53.652;9.792;2023-03-05T08:24:04;22.48;;;6.35;;
30243;SDS011;64022;53.652;9.792;2023-03-05T08:26:31;19.60;;;7.32;;
30243;SDS011;64022;53.652;9.792;2023-03-05T08:28:59;23.15;;;7.95;;
30243;SDS011;64022;53.652;9.792;2023-03-05T08:31:25;16.23;;;6.50;;
30243;SDS011;64022;53.652;9.792;2023-03-05T08:33:52;19.65;;;7.22;;
30243;SDS011;64022;53.652;9.792;2023-03-05T08:36:20;19.58;;;6.90;;
30243;SDS011;64022;53.652;9.792;2023-03-05T08:38:46;18.02;;;5.82;;
30243;SDS011;64022;53.652;9.792;2023-03-05T08:41:12;18.60;;;6.40;;
30243;SDS011;64022;53.652;9.792;2023-03-05T08:43:39;12.70;;;4.88;;
30243;SDS011;64022;53.652;9.792;2023-03-05T08:46:05;16.83;;;6.13;;
30243;SDS011;64022;53.652;9.792;2023-03-05T08:48:31;15.37;;;5.67;;
30243;SDS011;64022;53.652;9.792;2023-03-05T08:50:57;13.93;;;5.63;;
30243;SDS011;64022;53.652;9.792;2023-03-05T08:53:29;14.85;;;5.60;;
30243;SDS011;64022;53.652;9.792;2023-03-05T08:55:55;16.13;;;5.23;;
30243;SDS011;64022;53.652;9.792;2023-03-05T08:58:21;16.33;;;5.32;;
30243;SDS011;64022;53.652;9.792;2023-03-05T09:00:47;10.97;;;4.73;;
30243;SDS011;64022;53.652;9.792;2023-03-05T09:03:13;16.23;;;5.50;;
30243;SDS011;64022;53.652;9.792;2023-03-05T09:05:38;14.83;;;5.23;;
30243;SDS011;64022;53.652;9.792;2023-03-05T09:08:04;18.07;;;5.47;;
30243;SDS011;64022;53.652;9.792;2023-03-05T09:10:30;55.67;;;8.00;;
30243;SDS011;64022;53.652;9.792;2023-03-05T09:12:55;46.20;;;7.10;;
30243;SDS011;64022;53.652;9.792;2023-03-05T09:15:21;34.90;;;6.07;;
30243;SDS011;64022;53.652;9.792;2023-03-05T09:17:46;32.37;;;6.00;;
30243;SDS011;64022;53.652;9.792;2023-03-05T09:20:12;31.30;;;5.70;;
30243;SDS011;64022;53.652;9.792;2023-03-05T09:22:39;34.67;;;5.60;;
30243;SDS011;64022;53.652;9.792;2023-03-05T09:25:05;33.97;;;5.80;;
30243;SDS011;64022;53.652;9.792;2023-03-05T09:27:32;28.17;;;5.78;;
30243;SDS011;64022;53.652;9.792;2023-03-05T09:29:59;27.77;;;5.20;;
30243;SDS011;64022;53.652;9.792;2023-03-05T09:32:24;25.30;;;5.37;;
30243;SDS011;64022;53.652;9.792;2023-03-05T09:34:50;32.70;;;5.47;;
30243;SDS011;64022;53.652;9.792;2023-03-05T09:37:15;23.47;;;5.27;;
30243;SDS011;64022;53.652;9.792;2023-03-05T09:39:41;20.20;;;4.43;;
30243;SDS011;64022;53.652;9.792;2023-03-05T09:47:49;22.48;;;4.88;;
30243;SDS011;64022;53.652;9.792;2023-03-05T09:52:55;26.77;;;4.53;;
30243;SDS011;64022;53.652;9.792;2023-03-05T09:57:58;20.42;;;4.90;;
30243;SDS011;64022;53.652;9.792;2023-03-05T10:00:35;31.15;;;4.32;;
30243;SDS011;64022;53.652;9.792;2023-03-05T10:03:05;25.23;;;4.40;;
30243;SDS011;64022;53.652;9.792;2023-03-05T10:05:47;23.52;;;4.88;;
30243;SDS011;64022;53.652;9.792;2023-03-05T10:08:23;12.10;;;4.25;;
30243;SDS011;64022;53.652;9.792;2023-03-05T10:10:55;21.25;;;4.35;;
30243;SDS011;64022;53.652;9.792;2023-03-05T10:13:27;12.85;;;4.32;;
30243;SDS011;64022;53.652;9.792;2023-03-05T10:15:59;20.23;;;4.50;;
30243;SDS011;64022;53.652;9.792;2023-03-05T10:18:45;17.88;;;4.10;;
30243;SDS011;64022;53.652;9.792;2023-03-05T10:21:23;19.90;;;4.00;;
30243;SDS011;64022;53.652;9.792;2023-03-05T10:24:05;14.98;;;3.85;;
30243;SDS011;64022;53.652;9.792;2023-03-05T10:26:49;23.42;;;5.82;;
30243;SDS011;64022;53.652;9.792;2023-03-05T10:32:10;18.60;;;4.10;;
30243;SDS011;64022;53.652;9.792;2023-03-05T10:35:04;23.00;;;5.97;;
30243;SDS011;64022;53.652;9.792;2023-03-05T10:37:59;21.42;;;4.80;;
30243;SDS011;64022;53.652;9.792;2023-03-05T10:41:02;14.02;;;5.25;;
30243;SDS011;64022;53.652;9.792;2023-03-05T10:46:34;14.55;;;4.72;;
30243;SDS011;64022;53.652;9.792;2023-03-05T10:49:03;21.30;;;5.15;;
30243;SDS011;64022;53.652;9.792;2023-03-05T10:51:50;16.45;;;4.55;;
30243;SDS011;64022;53.652;9.792;2023-03-05T10:54:28;20.98;;;5.50;;
30243;SDS011;64022;53.652;9.792;2023-03-05T10:57:12;16.83;;;4.88;;
30243;SDS011;64022;53.652;9.792;2023-03-05T11:02:32;15.43;;;4.75;;
30243;SDS011;64022;53.652;9.792;2023-03-05T11:04:58;14.27;;;5.70;;
30243;SDS011;64022;53.652;9.792;2023-03-05T11:10:03;16.83;;;5.20;;
30243;SDS011;64022;53.652;9.792;2023-03-05T11:12:36;11.55;;;5.05;;
30243;SDS011;64022;53.652;9.792;2023-03-05T11:17:35;17.02;;;5.35;;
30243;SDS011;64022;53.652;9.792;2023-03-05T11:25:53;14.75;;;5.22;;
30243;SDS011;64022;53.652;9.792;2023-03-05T11:28:34;17.33;;;5.05;;
30243;SDS011;64022;53.652;9.792;2023-03-05T11:34:01;14.00;;;5.25;;
30243;SDS011;64022;53.652;9.792;2023-03-05T11:36:36;10.73;;;4.93;;
30243;SDS011;64022;53.652;9.792;2023-03-05T11:44:12;13.02;;;4.70;;
30243;SDS011;64022;53.652;9.792;2023-03-05T11:46:51;14.45;;;4.68;;
30243;SDS011;64022;53.652;9.792;2023-03-05T11:49:21;12.25;;;5.90;;
30243;SDS011;64022;53.652;9.792;2023-03-05T11:57:46;13.43;;;4.68;;
30243;SDS011;64022;53.652;9.792;2023-03-05T12:00:36;12.10;;;4.75;;
30243;SDS011;64022;53.652;9.792;2023-03-05T12:03:08;10.68;;;4.75;;
30243;SDS011;64022;53.652;9.792;2023-03-05T12:05:38;14.50;;;4.45;;
30243;SDS011;64022;53.652;9.792;2023-03-05T12:08:10;11.50;;;4.45;;
30243;SDS011;64022;53.652;9.792;2023-03-05T12:10:39;15.52;;;5.00;;
30243;SDS011;64022;53.652;9.792;2023-03-05T12:13:13;10.10;;;4.33;;
30243;SDS011;64022;53.652;9.792;2023-03-05T12:15:55;8.48;;;4.25;;
30243;SDS011;64022;53.652;9.792;2023-03-05T12:21:22;12.85;;;4.80;;
30243;SDS011;64022;53.652;9.792;2023-03-05T12:23:56;10.02;;;4.65;;
30243;SDS011;64022;53.652;9.792;2023-03-05T12:29:28;11.57;;;4.15;;
30243;SDS011;64022;53.652;9.792;2023-03-05T12:31:57;8.80;;;4.07;;
30243;SDS011;64022;53.652;9.792;2023-03-05T12:37:00;11.05;;;4.93;;
30243;SDS011;64022;53.652;9.792;2023-03-05T12:39:46;13.10;;;4.60;;
30243;SDS011;64022;53.652;9.792;2023-03-05T12:42:39;8.63;;;4.80;;
30243;SDS011;64022;53.652;9.792;2023-03-05T12:47:47;7.90;;;4.57;;
30243;SDS011;64022;53.652;9.792;2023-03-05T12:55:26;10.27;;;4.57;;
30243;SDS011;64022;53.652;9.792;2023-03-05T12:58:03;10.25;;;4.13;;
30243;SDS011;64022;53.652;9.792;2023-03-05T13:03:10;8.40;;;4.85;;
30243;SDS011;64022;53.652;9.792;2023-03-05T13:05:47;9.98;;;3.88;;
30243;SDS011;64022;53.652;9.792;2023-03-05T13:10:54;10.23;;;4.57;;
30243;SDS011;64022;53.652;9.792;2023-03-05T13:13:23;11.60;;;6.68;;
30243;SDS011;64022;53.652;9.792;2023-03-05T13:15:52;13.10;;;7.32;;
30243;SDS011;64022;53.652;9.792;2023-03-05T13:18:19;11.67;;;5.90;;
30243;SDS011;64022;53.652;9.792;2023-03-05T13:23:49;9.88;;;5.40;;
30243;SDS011;64022;53.652;9.792;2023-03-05T13:26:26;10.00;;;5.57;;
30243;SDS011;64022;53.652;9.792;2023-03-05T13:31:44;17.50;;;5.63;;
30243;SDS011;64022;53.652;9.792;2023-03-05T13:34:28;10.02;;;6.32;;
30243;SDS011;64022;53.652;9.792;2023-03-05T13:37:00;11.90;;;5.13;;
30243;SDS011;64022;53.652;9.792;2023-03-05T13:39:28;13.85;;;5.20;;
30243;SDS011;64022;53.652;9.792;2023-03-05T13:42:14;10.32;;;4.90;;
30243;SDS011;64022;53.652;9.792;2023-03-05T13:44:41;8.88;;;5.10;;
30243;SDS011;64022;53.652;9.792;2023-03-05T13:47:14;9.67;;;4.93;;
30243;SDS011;64022;53.652;9.792;2023-03-05T13:49:42;10.85;;;5.05;;
30243;SDS011;64022;53.652;9.792;2023-03-05T13:52:08;10.87;;;5.23;;
30243;SDS011;64022;53.652;9.792;2023-03-05T13:54:34;9.73;;;5.20;;
30243;SDS011;64022;53.652;9.792;2023-03-05T13:57:01;9.67;;;4.87;;
30243;SDS011;64022;53.652;9.792;2023-03-05T13:59:32;8.57;;;4.95;;
30243;SDS011;64022;53.652;9.792;2023-03-05T14:02:00;10.90;;;4.63;;
30243;SDS011;64022;53.652;9.792;2023-03-05T14:04:40;8.45;;;4.22;;
30243;SDS011;64022;53.652;9.792;2023-03-05T14:07:26;11.93;;;4.95;;
30243;SDS011;64022;53.652;9.792;2023-03-05T14:09:57;11.32;;;4.90;;
30243;SDS011;64022;53.652;9.792;2023-03-05T14:14:56;9.93;;;5.25;;
30243;SDS011;64022;53.652;9.792;2023-03-05T14:19:51;10.75;;;4.85;;
30243;SDS011;64022;53.652;9.792;2023-03-05T14:22:32;14.23;;;4.85;;
30243;SDS011;64022;53.652;9.792;2023-03-05T14:25:01;10.73;;;4.90;;
30243;SDS011;64022;53.652;9.792;2023-03-05T14:27:28;9.88;;;5.13;;
30243;SDS011;64022;53.652;9.792;2023-03-05T14:29:58;16.52;;;5.72;;
30243;SDS011;64022;53.652;9.792;2023-03-05T14:34:54;14.73;;;5.53;;
30243;SDS011;64022;53.652;9.792;2023-03-05T14:37:23;13.20;;;5.18;;
30243;SDS011;64022;53.652;9.792;2023-03-05T14:39:56;9.10;;;5.55;;
30243;SDS011;64022;53.652;9.792;2023-03-05T14:42:33;8.82;;;4.90;;
30243;SDS011;64022;53.652;9.792;2023-03-05T14:45:15;13.65;;;4.90;;
30243;SDS011;64022;53.652;9.792;2023-03-05T14:47:44;12.20;;;4.85;;
30243;SDS011;64022;53.652;9.792;2023-03-05T14:50:14;12.75;;;5.43;;
30243;SDS011;64022;53.652;9.792;2023-03-05T14:52:41;11.35;;;4.95;;
30243;SDS011;64022;53.652;9.792;2023-03-05T14:55:12;8.33;;;5.07;;
30243;SDS011;64022;53.652;9.792;2023-03-05T14:57:39;9.68;;;5.55;;
30243;SDS011;64022;53.652;9.792;2023-03-05T15:00:09;9.13;;;4.97;;
30243;SDS011;64022;53.652;9.792;2023-03-05T15:02:40;9.65;;;5.43;;
30243;SDS011;64022;53.652;9.792;2023-03-05T15:05:06;7.83;;;5.10;;
30243;SDS011;64022;53.652;9.792;2023-03-05T15:07:32;12.20;;;5.30;;
30243;SDS011;64022;53.652;9.792;2023-03-05T15:10:32;11.20;;;5.47;;
30243;SDS011;64022;53.652;9.792;2023-03-05T15:12:58;11.17;;;6.00;;
30243;SDS011;64022;53.652;9.792;2023-03-05T15:15:24;10.85;;;5.63;;
30243;SDS011;64022;53.652;9.792;2023-03-05T15:17:50;10.18;;;5.40;;
30243;SDS011;64022;53.652;9.792;2023-03-05T15:20:20;11.32;;;5.50;;
30243;SDS011;64022;53.652;9.792;2023-03-05T15:22:48;13.45;;;6.07;;
30243;SDS011;64022;53.652;9.792;2023-03-05T15:25:13;11.47;;;6.03;;
30243;SDS011;64022;53.652;9.792;2023-03-05T15:27:39;11.43;;;5.90;;
30243;SDS011;64022;53.652;9.792;2023-03-05T15:30:05;10.23;;;5.80;;
30243;SDS011;64022;53.652;9.792;2023-03-05T15:32:32;16.30;;;6.00;;
30243;SDS011;64022;53.652;9.792;2023-03-05T15:34:58;14.83;;;6.33;;
30243;SDS011;64022;53.652;9.792;2023-03-05T15:37:24;16.27;;;6.47;;
30243;SDS011;64022;53.652;9.792;2023-03-05T15:39:51;12.15;;;6.28;;
30243;SDS011;64022;53.652;9.792;2023-03-05T15:42:18;10.75;;;6.68;;
30243;SDS011;64022;53.652;9.792;2023-03-05T15:44:43;15.70;;;6.53;;
30243;SDS011;64022;53.652;9.792;2023-03-05T15:47:09;12.23;;;6.70;;
30243;SDS011;64022;53.652;9.792;2023-03-05T15:49:35;12.33;;;6.80;;
30243;SDS011;64022;53.652;9.792;2023-03-05T15:52:00;13.10;;;6.73;;
30243;SDS011;64022;53.652;9.792;2023-03-05T15:54:26;13.30;;;7.20;;
30243;SDS011;64022;53.652;9.792;2023-03-05T15:56:51;11.53;;;7.47;;
30243;SDS011;64022;53.652;9.792;2023-03-05T15:59:18;13.25;;;6.82;;
30243;SDS011;64022;53.652;9.792;2023-03-05T16:01:46;11.32;;;6.88;;
30243;SDS011;64022;53.652;9.792;2023-03-05T16:04:13;11.88;;;7.03;;
30243;SDS011;64022;53.652;9.792;2023-03-05T16:06:39;13.25;;;7.43;;
30243;SDS011;64022;53.652;9.792;2023-03-05T16:09:06;15.15;;;7.47;;
30243;SDS011;64022;53.652;9.792;2023-03-05T16:11:32;14.90;;;7.23;;
30243;SDS011;64022;53.652;9.792;2023-03-05T16:14:02;12.35;;;7.07;;